Tonka Bay, Minnesota
Current Conditions -  °F | °C
As of 2:29 AM on Sunday 21 Dec 2014 (Local Time) from KFCM Reporting Station
Haze Haze  
Wind Chill: 24°   Ceiling: 900
Heat Index: 32°   Visibility: 5mi
Dew Point: 29°   Wind: 9mph
Humidity: 88%   Direction: 150°SSE
Pressure: 30.01"   Gusts: NA
Location:  44.8924°N, 93.5895°W
Report Text: KFCM 210829Z AUTO 15008KT 5SM BR OVC009 00/M02 A3001 RMK AO2 T00001017
Loading
Personal Weather Stations






























Interactive Weather Map New forecast layout! Learn more

10-Day Weather Forecast

Advertisements
Track Severe Weather on mobile